GRZ514 Details

Departure: Sitka Rocky Gutierrez Airport (PASI)
Arrival: Juneau International Airport (PAJN)
Route: HAWRD5 TNAKY


Current Weather Information
PASI 260053Z 13009KT 10SM BKN040 OVC100 08/02 A3011 RMK AO2 SLP197 T00780017
PAJN 260053Z 14009KT 10SM -RA FEW016 BKN034 OVC043 05/02 A3018 RMK AO2 RAB18 SLP218 P0000 T00500022